createdAt,value
2023-03-03T00:00:08.301Z,100833.72
2023-03-03T00:02:40.972Z,100842.34
2023-03-03T00:05:08.179Z,100838.25
2023-03-03T00:07:34.801Z,100831.09
2023-03-03T00:10:01.442Z,100830.63
2023-03-03T00:12:31.684Z,100834.34
2023-03-03T00:14:58.445Z,100838.22
2023-03-03T00:17:27.786Z,100844.78
2023-03-03T00:19:55.392Z,100839.03
2023-03-03T00:22:36.502Z,100839.25
2023-03-03T00:25:21.713Z,100839.03
2023-03-03T00:27:48.444Z,100841.75
2023-03-03T00:30:25.478Z,100845.00
2023-03-03T00:32:53.288Z,100850.75
2023-03-03T00:35:35.420Z,100855.25
2023-03-03T00:38:12.807Z,100851.34
2023-03-03T00:40:40.816Z,100853.16
2023-03-03T00:43:25.417Z,100851.31
2023-03-03T00:45:54.464Z,100852.50
2023-03-03T00:48:22.996Z,100855.94
2023-03-03T00:50:50.906Z,100847.56
2023-03-03T00:53:19.299Z,100848.41
2023-03-03T00:55:47.728Z,100853.97
2023-03-03T00:58:15.388Z,100854.56
2023-03-03T01:00:45.036Z,100852.91
2023-03-03T01:03:18.127Z,100864.44
2023-03-03T01:05:45.394Z,100858.28
2023-03-03T01:08:12.872Z,100854.34
2023-03-03T01:10:44.068Z,100856.81
2023-03-03T01:13:11.463Z,100854.97
2023-03-03T01:15:39.969Z,100857.84
2023-03-03T01:18:08.116Z,100861.69
2023-03-03T01:20:34.841Z,100855.31
2023-03-03T01:23:01.483Z,100856.88
2023-03-03T01:25:28.473Z,100857.69
2023-03-03T01:27:55.911Z,100856.34
2023-03-03T01:30:23.330Z,100853.66
2023-03-03T01:32:50.011Z,100853.56
2023-03-03T01:35:17.260Z,100857.63
2023-03-03T01:37:44.048Z,100861.13
2023-03-03T01:40:20.582Z,100858.03
2023-03-03T01:42:47.521Z,100852.91
2023-03-03T01:45:26.163Z,100848.19
2023-03-03T01:48:00.646Z,100847.09
2023-03-03T01:50:47.691Z,100845.50
2023-03-03T01:53:19.736Z,100849.97
2023-03-03T01:55:47.724Z,100845.44
2023-03-03T01:58:26.184Z,100845.44
2023-03-03T02:01:02.486Z,100849.81
2023-03-03T02:03:30.610Z,100846.28
2023-03-03T02:06:03.382Z,100843.59
2023-03-03T02:08:42.893Z,100833.75
2023-03-03T02:11:11.004Z,100836.16
2023-03-03T02:13:37.808Z,100840.47
2023-03-03T02:16:04.879Z,100833.56
2023-03-03T02:18:31.848Z,100834.50
2023-03-03T02:21:05.577Z,100838.69
2023-03-03T02:23:44.920Z,100841.94
2023-03-03T02:26:24.849Z,100830.88
2023-03-03T02:28:56.721Z,100839.47
2023-03-03T02:31:26.400Z,100847.84
2023-03-03T02:33:55.288Z,100844.72
2023-03-03T02:36:28.439Z,100839.94
2023-03-03T02:39:07.313Z,100843.56
2023-03-03T02:41:36.998Z,100847.19
2023-03-03T02:44:09.443Z,100838.41
2023-03-03T02:46:39.327Z,100847.59
2023-03-03T02:49:08.237Z,100844.00
2023-03-03T02:51:35.875Z,100838.38
2023-03-03T02:54:02.837Z,100848.31
2023-03-03T02:56:33.267Z,100845.16
2023-03-03T02:59:00.180Z,100846.28
2023-03-03T03:01:27.630Z,100841.09
2023-03-03T03:03:54.711Z,100841.19
2023-03-03T03:06:22.937Z,100838.31
2023-03-03T03:08:49.813Z,100841.13
2023-03-03T03:11:16.563Z,100843.53
2023-03-03T03:13:43.479Z,100842.63
2023-03-03T03:16:10.184Z,100849.03
2023-03-03T03:18:36.828Z,100846.41
2023-03-03T03:21:11.849Z,100839.13
2023-03-03T03:23:40.984Z,100839.22
2023-03-03T03:26:08.811Z,100835.91
2023-03-03T03:28:36.391Z,100836.97
2023-03-03T03:31:05.570Z,100836.69
2023-03-03T03:33:34.403Z,100843.66
2023-03-03T03:36:01.464Z,100855.22
2023-03-03T03:38:29.677Z,100855.47
2023-03-03T03:40:56.524Z,100851.63
2023-03-03T03:43:23.268Z,100852.16
2023-03-03T03:45:50.142Z,100845.47
2023-03-03T03:48:19.556Z,100855.16
2023-03-03T03:50:48.920Z,100846.75
2023-03-03T03:53:16.652Z,100840.44
2023-03-03T03:55:44.488Z,100846.75
2023-03-03T03:58:17.324Z,100858.72
2023-03-03T04:00:48.966Z,100862.19
2023-03-03T04:03:16.942Z,100860.03
2023-03-03T04:05:45.827Z,100860.06
2023-03-03T04:08:13.468Z,100861.38
2023-03-03T04:10:42.281Z,100859.41
2023-03-03T04:13:09.321Z,100857.03
2023-03-03T04:15:36.444Z,100859.41
2023-03-03T04:18:04.090Z,100858.34
2023-03-03T04:20:30.977Z,100858.38
2023-03-03T04:22:58.249Z,100858.53
2023-03-03T04:25:25.999Z,100855.03
2023-03-03T04:27:54.310Z,100862.59
2023-03-03T04:30:22.695Z,100856.09
2023-03-03T04:32:53.229Z,100860.91
2023-03-03T04:35:22.496Z,100854.97
2023-03-03T04:37:49.201Z,100853.94
2023-03-03T04:40:18.228Z,100853.81
2023-03-03T04:42:47.468Z,100857.97
2023-03-03T04:45:14.230Z,100861.03
2023-03-03T04:47:41.879Z,100866.50
2023-03-03T04:50:11.051Z,100873.47
2023-03-03T04:52:38.023Z,100861.53
2023-03-03T04:55:09.340Z,100872.00
2023-03-03T04:57:38.958Z,100881.47
2023-03-03T05:00:06.694Z,100875.03
2023-03-03T05:02:33.906Z,100876.13
2023-03-03T05:05:01.976Z,100876.19
2023-03-03T05:07:29.911Z,100885.41
2023-03-03T05:09:56.516Z,100886.75
2023-03-03T05:12:23.181Z,100885.94
2023-03-03T05:14:49.867Z,100888.78
2023-03-03T05:17:16.503Z,100889.78
2023-03-03T05:19:43.208Z,100895.97
2023-03-03T05:22:10.394Z,100898.22
2023-03-03T05:24:37.100Z,100897.97
2023-03-03T05:27:03.799Z,100897.75
2023-03-03T05:29:31.569Z,100904.25
2023-03-03T05:31:58.529Z,100906.00
2023-03-03T05:34:25.429Z,100907.75
2023-03-03T05:36:52.121Z,100911.94
2023-03-03T05:39:18.892Z,100907.06
2023-03-03T05:41:45.578Z,100902.81
2023-03-03T05:44:12.831Z,100908.13
2023-03-03T05:46:39.788Z,100918.94
2023-03-03T05:49:06.486Z,100920.91
2023-03-03T05:51:33.154Z,100920.41
2023-03-03T05:53:59.862Z,100924.72
2023-03-03T05:56:26.420Z,100933.06
2023-03-03T05:58:53.148Z,100933.25
2023-03-03T06:01:19.798Z,100931.25
2023-03-03T06:03:46.354Z,100924.72
2023-03-03T06:06:14.164Z,100925.56
2023-03-03T06:08:40.864Z,100929.69
2023-03-03T06:11:07.491Z,100933.06
2023-03-03T06:13:34.480Z,100929.91
2023-03-03T06:16:01.105Z,100920.06
2023-03-03T06:18:27.662Z,100924.66
2023-03-03T06:20:55.015Z,100925.47
2023-03-03T06:23:22.145Z,100929.78
2023-03-03T06:25:48.802Z,100929.78
2023-03-03T06:28:15.393Z,100940.53
2023-03-03T06:30:42.060Z,100933.34
2023-03-03T06:33:08.632Z,100938.84
2023-03-03T06:35:35.307Z,100943.06
2023-03-03T06:38:02.799Z,100940.66
2023-03-03T06:40:29.382Z,100954.31
2023-03-03T06:42:56.260Z,100952.69
2023-03-03T06:45:22.842Z,100956.72
2023-03-03T06:47:49.606Z,100960.38
2023-03-03T06:50:20.234Z,100967.97
2023-03-03T06:52:47.010Z,100980.28
2023-03-03T06:55:21.575Z,100992.22
2023-03-03T06:57:48.329Z,100992.75
2023-03-03T07:00:23.194Z,101001.75
2023-03-03T07:03:00.744Z,100999.25
2023-03-03T07:05:28.982Z,100993.56
2023-03-03T07:07:56.748Z,100996.25
2023-03-03T07:10:28.686Z,100999.97
2023-03-03T07:13:14.452Z,101004.53
2023-03-03T07:15:41.040Z,101000.72
2023-03-03T07:18:24.643Z,101000.72
2023-03-03T07:20:51.474Z,101000.50
2023-03-03T07:23:25.164Z,101002.13
2023-03-03T07:25:52.569Z,101003.56
2023-03-03T07:28:29.736Z,101008.50
2023-03-03T07:30:58.190Z,101011.47
2023-03-03T07:33:34.246Z,101010.50
2023-03-03T07:36:02.870Z,101022.03
2023-03-03T07:38:34.487Z,101019.94
2023-03-03T07:41:03.793Z,101023.22
2023-03-03T07:43:43.236Z,101029.94
2023-03-03T07:46:09.842Z,101036.84
2023-03-03T07:48:40.093Z,101036.28
2023-03-03T07:51:18.998Z,101033.72
2023-03-03T07:53:47.329Z,101042.09
2023-03-03T07:56:26.798Z,101043.50
2023-03-03T07:58:55.985Z,101040.06
2023-03-03T08:01:39.692Z,101032.13
2023-03-03T08:04:17.512Z,101036.66
2023-03-03T08:06:55.753Z,101045.94
2023-03-03T08:09:51.872Z,101054.97
2023-03-03T08:12:33.782Z,101053.56
2023-03-03T08:15:36.249Z,101058.56
2023-03-03T08:18:15.420Z,101064.81
2023-03-03T08:20:46.163Z,101066.13
2023-03-03T08:23:14.598Z,101061.00
2023-03-03T08:25:42.353Z,101068.50
2023-03-03T08:28:10.424Z,101070.34
2023-03-03T08:30:37.153Z,101072.44
2023-03-03T08:33:04.416Z,101076.53
2023-03-03T08:35:31.418Z,101081.38
2023-03-03T08:37:58.444Z,101066.84
2023-03-03T08:40:25.411Z,101071.75
2023-03-03T08:42:52.131Z,101072.44
2023-03-03T08:45:18.724Z,101071.38
2023-03-03T08:47:45.533Z,101073.25
2023-03-03T08:50:13.251Z,101069.53
2023-03-03T08:52:40.374Z,101068.13
2023-03-03T08:55:08.783Z,101069.78
2023-03-03T08:57:35.781Z,101068.34
2023-03-03T09:00:03.072Z,101062.72
2023-03-03T09:02:30.162Z,101070.28
2023-03-03T09:04:56.791Z,101081.47
2023-03-03T09:07:23.478Z,101084.66
2023-03-03T09:09:50.499Z,101083.81
2023-03-03T09:12:22.624Z,101080.13
2023-03-03T09:14:51.317Z,101082.38
2023-03-03T09:17:33.869Z,101081.88
2023-03-03T09:20:17.535Z,101084.53
2023-03-03T09:22:45.056Z,101090.34
2023-03-03T09:25:22.132Z,101095.44
2023-03-03T09:27:48.867Z,101093.59
2023-03-03T09:30:39.501Z,101091.97
2023-03-03T09:33:29.294Z,101087.84
2023-03-03T09:36:22.427Z,101100.19
2023-03-03T09:38:49.177Z,101092.41
2023-03-03T09:41:23.994Z,101098.50
2023-03-03T09:44:02.519Z,101092.75
2023-03-03T09:46:44.776Z,101089.44
2023-03-03T09:49:47.939Z,101089.78
2023-03-03T09:52:27.303Z,101088.91
2023-03-03T09:55:15.738Z,101086.91
2023-03-03T09:58:12.583Z,101090.59
2023-03-03T10:01:22.501Z,101098.72
2023-03-03T10:04:08.273Z,101093.91
2023-03-03T10:06:48.319Z,101096.41
2023-03-03T10:09:43.165Z,101102.44
2023-03-03T10:12:30.959Z,101104.88
2023-03-03T10:15:30.365Z,101101.19
2023-03-03T10:18:19.724Z,101100.22
2023-03-03T10:21:12.340Z,101104.72
2023-03-03T10:24:12.783Z,101111.50
2023-03-03T10:27:12.327Z,101108.00
2023-03-03T10:30:04.629Z,101106.75
2023-03-03T10:32:45.578Z,101117.13
2023-03-03T10:35:22.539Z,101116.28
2023-03-03T10:38:12.085Z,101105.75
2023-03-03T10:40:57.086Z,101102.69
2023-03-03T10:43:33.041Z,101098.50
2023-03-03T10:46:28.013Z,101099.53
2023-03-03T10:49:20.802Z,101102.94
2023-03-03T10:51:50.443Z,101108.34
2023-03-03T10:54:54.464Z,101105.69
2023-03-03T10:57:27.157Z,101102.56
2023-03-03T11:00:32.728Z,101103.91
2023-03-03T11:03:36.603Z,101106.44
2023-03-03T11:06:11.270Z,101099.69
2023-03-03T11:09:14.078Z,101101.59
2023-03-03T11:12:10.200Z,101109.34
2023-03-03T11:14:47.863Z,101107.75
2023-03-03T11:17:46.992Z,101105.16
2023-03-03T11:20:51.192Z,101100.53
2023-03-03T11:23:44.719Z,101100.78
2023-03-03T11:26:13.992Z,101099.13
2023-03-03T11:29:10.296Z,101093.84
2023-03-03T11:31:48.236Z,101094.44
2023-03-03T11:34:47.130Z,101087.16
2023-03-03T11:37:19.048Z,101089.59
2023-03-03T11:39:45.785Z,101095.97
2023-03-03T11:42:18.235Z,101084.50
2023-03-03T11:44:55.072Z,101095.47
2023-03-03T11:47:41.995Z,101082.56
2023-03-03T11:50:16.357Z,101079.16
2023-03-03T11:52:55.780Z,101074.53
2023-03-03T11:55:39.391Z,101071.88
2023-03-03T11:58:20.380Z,101069.22
2023-03-03T12:00:52.389Z,101072.44
2023-03-03T12:03:25.093Z,101079.88
2023-03-03T12:06:13.305Z,101075.25
2023-03-03T12:08:58.271Z,101074.72
2023-03-03T12:11:54.412Z,101067.41
2023-03-03T12:14:42.589Z,101071.31
2023-03-03T12:17:21.223Z,101068.31
2023-03-03T12:20:18.052Z,101064.00
2023-03-03T12:23:07.285Z,101055.88
2023-03-03T12:25:42.949Z,101057.28
2023-03-03T12:28:36.310Z,101055.31
2023-03-03T12:31:32.222Z,101045.91
2023-03-03T12:34:11.901Z,101043.06
2023-03-03T12:37:05.267Z,101036.13
2023-03-03T12:39:56.672Z,101032.88
2023-03-03T12:42:38.629Z,101030.44
2023-03-03T12:45:24.314Z,101029.94
2023-03-03T12:48:00.292Z,101030.78
2023-03-03T12:50:47.311Z,101024.44
2023-03-03T12:53:37.914Z,101016.00
2023-03-03T12:56:10.462Z,101018.41
2023-03-03T12:59:14.491Z,101015.25
2023-03-03T13:02:08.456Z,101018.13
2023-03-03T13:04:38.522Z,101009.50
2023-03-03T13:07:31.499Z,101007.00
2023-03-03T13:10:17.069Z,101003.72
2023-03-03T13:13:11.944Z,101006.13
2023-03-03T13:15:58.394Z,101006.75
2023-03-03T13:18:49.832Z,101004.63
2023-03-03T13:21:22.764Z,101007.19
2023-03-03T13:24:05.110Z,101012.38
2023-03-03T13:26:37.624Z,101004.19
2023-03-03T13:29:15.387Z,101003.19
2023-03-03T13:32:14.577Z,100997.16
2023-03-03T13:35:09.151Z,100996.56
2023-03-03T13:37:43.460Z,100997.09
2023-03-03T13:40:13.464Z,100998.69
2023-03-03T13:42:46.337Z,101003.22
2023-03-03T13:45:31.317Z,100993.69
2023-03-03T13:48:28.543Z,100994.38
2023-03-03T13:51:10.470Z,100987.03
2023-03-03T13:53:45.429Z,100985.72
2023-03-03T13:56:33.319Z,100985.38
2023-03-03T13:59:18.602Z,100980.13
2023-03-03T14:02:22.210Z,100983.63
2023-03-03T14:04:54.566Z,100971.78
2023-03-03T14:07:44.966Z,100967.38
2023-03-03T14:10:31.507Z,100968.41
2023-03-03T14:13:24.744Z,100958.41
2023-03-03T14:15:57.708Z,100956.44
2023-03-03T14:18:44.811Z,100963.75
2023-03-03T14:21:18.975Z,100958.97
2023-03-03T14:24:02.453Z,100946.56
2023-03-03T14:26:29.281Z,100946.56
2023-03-03T14:29:20.349Z,100945.66
2023-03-03T14:31:47.763Z,100946.97
2023-03-03T14:34:29.419Z,100946.66
2023-03-03T14:37:23.016Z,100945.72
2023-03-03T14:40:15.042Z,100944.34
2023-03-03T14:42:53.770Z,100943.78
2023-03-03T14:45:33.651Z,100946.38
2023-03-03T14:48:11.608Z,100947.69
2023-03-03T14:50:41.597Z,100948.59
2023-03-03T14:53:19.988Z,100945.44
2023-03-03T14:55:52.884Z,100942.66
2023-03-03T14:58:26.847Z,100932.59
2023-03-03T15:01:18.666Z,100935.50
2023-03-03T15:03:49.244Z,100939.16
2023-03-03T15:06:32.949Z,100944.41
2023-03-03T15:09:20.672Z,100945.81
2023-03-03T15:11:51.556Z,100941.38
2023-03-03T15:14:24.631Z,100935.28
2023-03-03T15:16:51.416Z,100946.84
2023-03-03T15:19:37.107Z,100942.06
2023-03-03T15:22:29.133Z,100939.38
2023-03-03T15:25:10.959Z,100945.25
2023-03-03T15:27:43.870Z,100948.41
2023-03-03T15:30:15.502Z,100941.22
2023-03-03T15:32:56.543Z,100945.09
2023-03-03T15:35:52.992Z,100946.78
2023-03-03T15:38:31.103Z,100946.97
2023-03-03T15:41:19.236Z,100939.56
2023-03-03T15:44:10.450Z,100944.19
2023-03-03T15:46:44.123Z,100949.75
2023-03-03T15:49:55.364Z,100945.50
2023-03-03T15:52:45.384Z,100947.25
2023-03-03T15:55:32.549Z,100951.72
2023-03-03T15:58:23.879Z,100944.16
2023-03-03T16:01:10.571Z,100945.97
2023-03-03T16:03:46.443Z,100947.25
2023-03-03T16:06:22.133Z,100949.41
2023-03-03T16:09:10.012Z,100947.47
2023-03-03T16:11:54.332Z,100942.59
2023-03-03T16:14:36.350Z,100944.25
2023-03-03T16:17:28.256Z,100950.88
2023-03-03T16:20:10.191Z,100950.19
2023-03-03T16:22:49.778Z,100958.91
2023-03-03T16:25:36.818Z,100963.47
2023-03-03T16:28:18.014Z,100962.31
2023-03-03T16:30:54.955Z,100966.84
2023-03-03T16:33:37.722Z,100970.47
2023-03-03T16:36:28.545Z,100972.03
2023-03-03T16:39:25.932Z,100981.63
2023-03-03T16:42:08.582Z,100979.59
2023-03-03T16:44:43.604Z,100980.97
2023-03-03T16:47:24.061Z,100984.00
2023-03-03T16:50:06.233Z,100986.59
2023-03-03T16:52:40.756Z,100989.91
2023-03-03T16:55:46.997Z,101000.88
2023-03-03T16:58:31.717Z,100999.03
2023-03-03T17:01:07.214Z,100998.13
2023-03-03T17:03:46.194Z,101011.25
2023-03-03T17:06:27.770Z,101006.19
2023-03-03T17:09:32.076Z,101005.38
2023-03-03T17:12:32.477Z,101013.84
2023-03-03T17:15:14.918Z,101015.50
2023-03-03T17:17:56.930Z,101025.38
2023-03-03T17:20:32.365Z,101028.13
2023-03-03T17:23:36.388Z,101029.81
2023-03-03T17:26:23.430Z,101028.94
2023-03-03T17:29:21.634Z,101042.00
2023-03-03T17:32:27.276Z,101042.00
2023-03-03T17:35:27.005Z,101052.00
2023-03-03T17:38:05.678Z,101053.59
2023-03-03T17:40:49.336Z,101056.44
2023-03-03T17:43:39.753Z,101058.13
2023-03-03T17:46:16.907Z,101057.13
2023-03-03T17:49:06.741Z,101053.59
2023-03-03T17:51:51.325Z,101061.69
2023-03-03T17:54:32.957Z,101061.47
2023-03-03T17:57:17.398Z,101061.91
2023-03-03T17:59:58.730Z,101067.66
2023-03-03T18:03:03.118Z,101068.91
2023-03-03T18:06:00.107Z,101073.25
2023-03-03T18:08:37.250Z,101074.06
2023-03-03T18:11:29.301Z,101070.34
2023-03-03T18:14:22.000Z,101072.22
2023-03-03T18:17:10.104Z,101077.38
2023-03-03T18:20:05.008Z,101083.78
2023-03-03T18:22:41.095Z,101081.09
2023-03-03T18:25:22.421Z,101083.78
2023-03-03T18:28:01.123Z,101084.41
2023-03-03T18:30:32.892Z,101090.59
2023-03-03T18:33:07.033Z,101088.34
2023-03-03T18:35:38.230Z,101094.72
2023-03-03T18:38:16.916Z,101092.03
2023-03-03T18:41:03.995Z,101094.09
2023-03-03T18:43:45.469Z,101095.34
2023-03-03T18:46:22.632Z,101101.72
2023-03-03T18:48:53.332Z,101105.22
2023-03-03T18:51:35.464Z,101100.47
2023-03-03T18:54:16.172Z,101109.78
2023-03-03T18:56:58.249Z,101108.91
2023-03-03T18:59:31.141Z,101115.09
2023-03-03T19:02:13.252Z,101112.22
2023-03-03T19:05:06.509Z,101113.66
2023-03-03T19:07:42.146Z,101119.22
2023-03-03T19:10:21.368Z,101122.50
2023-03-03T19:12:52.056Z,101117.13
2023-03-03T19:15:31.197Z,101118.53
2023-03-03T19:18:03.646Z,101125.34
2023-03-03T19:20:40.946Z,101117.91
2023-03-03T19:23:17.102Z,101126.56
2023-03-03T19:25:44.199Z,101132.13
2023-03-03T19:28:38.052Z,101125.91
2023-03-03T19:31:21.669Z,101136.00
2023-03-03T19:33:57.142Z,101137.00
2023-03-03T19:36:39.694Z,101139.88
2023-03-03T19:39:52.367Z,101145.47
2023-03-03T19:42:39.970Z,101148.50
2023-03-03T19:45:24.669Z,101149.72
2023-03-03T19:48:01.185Z,101147.41
2023-03-03T19:51:07.821Z,101161.44
2023-03-03T19:53:43.337Z,101159.81
2023-03-03T19:56:42.564Z,101159.75
2023-03-03T19:59:31.177Z,101159.34
2023-03-03T20:02:16.520Z,101162.84
2023-03-03T20:04:59.638Z,101156.41
2023-03-03T20:07:33.879Z,101163.78
2023-03-03T20:10:15.783Z,101169.00
2023-03-03T20:13:00.194Z,101169.97
2023-03-03T20:15:36.684Z,101174.81
2023-03-03T20:18:28.141Z,101177.69
2023-03-03T20:21:28.230Z,101179.41
2023-03-03T20:24:25.144Z,101184.88
2023-03-03T20:27:18.518Z,101191.44
2023-03-03T20:30:02.561Z,101190.44
2023-03-03T20:32:44.470Z,101189.31
2023-03-03T20:35:21.039Z,101190.63
2023-03-03T20:37:54.504Z,101190.00
2023-03-03T20:40:45.400Z,101192.81
2023-03-03T20:43:38.324Z,101188.31
2023-03-03T20:46:29.469Z,101194.84
2023-03-03T20:49:14.627Z,101193.81
2023-03-03T20:51:43.771Z,101199.78
2023-03-03T20:54:22.554Z,101192.72
2023-03-03T20:57:01.369Z,101199.16
2023-03-03T20:59:44.621Z,101196.09
2023-03-03T21:02:23.933Z,101195.84
2023-03-03T21:05:08.079Z,101189.00
2023-03-03T21:07:36.559Z,101191.28
2023-03-03T21:10:36.260Z,101194.84
2023-03-03T21:13:30.925Z,101193.91
2023-03-03T21:16:06.128Z,101198.09
2023-03-03T21:18:32.856Z,101198.09
2023-03-03T21:20:59.581Z,101199.22
2023-03-03T21:23:26.273Z,101205.06
2023-03-03T21:25:55.245Z,101196.63
2023-03-03T21:28:31.313Z,101196.16
2023-03-03T21:31:17.188Z,101195.63
2023-03-03T21:33:55.704Z,101202.91
2023-03-03T21:36:45.031Z,101190.84
2023-03-03T21:39:20.761Z,101205.16
2023-03-03T21:41:55.475Z,101207.38
2023-03-03T21:44:29.745Z,101201.59
2023-03-03T21:46:58.593Z,101205.38
2023-03-03T21:49:26.111Z,101208.59
2023-03-03T21:51:53.239Z,101212.56
2023-03-03T21:54:19.883Z,101213.19
2023-03-03T21:56:48.007Z,101202.97
2023-03-03T21:59:14.882Z,101215.78
2023-03-03T22:01:41.807Z,101227.63
2023-03-03T22:04:09.717Z,101222.31
2023-03-03T22:06:39.926Z,101224.22
2023-03-03T22:09:07.214Z,101229.63
2023-03-03T22:11:34.191Z,101227.63
2023-03-03T22:14:01.158Z,101224.69
2023-03-03T22:16:28.051Z,101222.59
2023-03-03T22:18:54.769Z,101218.53
2023-03-03T22:21:21.912Z,101228.81
2023-03-03T22:23:48.660Z,101219.91
2023-03-03T22:26:15.571Z,101227.53
2023-03-03T22:28:44.249Z,101229.00
2023-03-03T22:31:11.209Z,101225.88
2023-03-03T22:33:37.917Z,101230.47
2023-03-03T22:36:11.883Z,101221.84
2023-03-03T22:38:39.962Z,101228.56
2023-03-03T22:41:07.662Z,101236.34
2023-03-03T22:43:34.664Z,101226.78
2023-03-03T22:46:01.551Z,101228.00
2023-03-03T22:48:29.389Z,101240.84
2023-03-03T22:50:56.680Z,101237.38
2023-03-03T22:53:24.860Z,101229.47
2023-03-03T22:55:52.184Z,101234.50
2023-03-03T22:58:26.736Z,101241.75
2023-03-03T23:00:54.157Z,101237.63
2023-03-03T23:03:22.587Z,101239.56
2023-03-03T23:05:51.654Z,101244.34
2023-03-03T23:08:20.444Z,101243.78
2023-03-03T23:10:48.521Z,101248.44
2023-03-03T23:13:15.523Z,101249.38
2023-03-03T23:15:42.716Z,101245.97
2023-03-03T23:18:09.991Z,101249.88
2023-03-03T23:20:37.205Z,101249.25
2023-03-03T23:23:03.858Z,101251.88
2023-03-03T23:25:30.582Z,101257.66
2023-03-03T23:27:57.571Z,101257.97
2023-03-03T23:30:24.327Z,101251.69
2023-03-03T23:32:51.734Z,101251.50
2023-03-03T23:35:19.106Z,101252.88
2023-03-03T23:37:46.089Z,101249.56
2023-03-03T23:40:15.160Z,101257.75
2023-03-03T23:42:42.293Z,101250.47
2023-03-03T23:45:10.537Z,101254.78
2023-03-03T23:47:37.378Z,101256.78
2023-03-03T23:50:04.827Z,101257.06
2023-03-03T23:52:31.689Z,101254.78
2023-03-03T23:54:58.454Z,101262.66
2023-03-03T23:57:25.222Z,101256.88
2023-03-03T23:59:51.858Z,101262.75
